createdAt,value
2019-03-26T00:02:07.944Z,68.70
2019-03-26T00:04:38.755Z,68.80
2019-03-26T00:07:09.493Z,68.80
2019-03-26T00:09:39.986Z,69.30
2019-03-26T00:12:10.698Z,69.20
2019-03-26T00:14:41.440Z,69.10
2019-03-26T00:17:12.124Z,69.30
2019-03-26T00:19:43.024Z,69.20
2019-03-26T00:22:13.981Z,69.30
2019-03-26T00:24:44.572Z,69.00
2019-03-26T00:27:15.180Z,69.40
2019-03-26T00:29:45.757Z,69.20
2019-03-26T00:32:16.679Z,69.10
2019-03-26T00:34:47.343Z,69.10
2019-03-26T00:37:17.866Z,69.30
2019-03-26T00:39:48.622Z,69.60
2019-03-26T00:42:19.240Z,69.10
2019-03-26T00:44:49.668Z,68.90
2019-03-26T00:47:20.326Z,68.80
2019-03-26T00:49:51.223Z,68.90
2019-03-26T00:52:21.729Z,68.80
2019-03-26T00:54:52.360Z,68.60
2019-03-26T00:57:23.283Z,68.30
2019-03-26T00:59:53.988Z,68.30
2019-03-26T01:02:24.713Z,67.70
2019-03-26T01:04:55.463Z,67.30
2019-03-26T01:07:26.133Z,67.60
2019-03-26T01:09:57.174Z,67.40
2019-03-26T01:12:37.548Z,67.60
2019-03-26T01:15:21.320Z,67.60
2019-03-26T01:17:53.596Z,67.30
2019-03-26T01:20:24.447Z,67.40
2019-03-26T01:22:55.118Z,67.00
2019-03-26T01:25:25.842Z,66.70
2019-03-26T01:27:57.835Z,67.00
2019-03-26T01:30:29.597Z,66.60
2019-03-26T01:33:01.043Z,66.70
2019-03-26T01:35:33.191Z,66.10
2019-03-26T01:38:19.120Z,65.90
2019-03-26T01:40:50.346Z,65.70
2019-03-26T01:43:21.201Z,65.70
2019-03-26T01:45:51.976Z,65.70
2019-03-26T01:48:22.883Z,65.30
2019-03-26T01:50:53.608Z,65.00
2019-03-26T01:53:24.254Z,64.90
2019-03-26T01:55:54.976Z,64.70
2019-03-26T01:58:25.857Z,64.40
2019-03-26T02:00:56.708Z,64.60
2019-03-26T02:03:28.820Z,64.60
2019-03-26T02:05:59.667Z,64.30
2019-03-26T02:08:31.724Z,64.20
2019-03-26T02:11:05.972Z,64.00
2019-03-26T02:13:36.842Z,63.70
2019-03-26T02:16:07.940Z,63.60
2019-03-26T02:18:41.713Z,63.50
2019-03-26T02:21:15.475Z,63.20
2019-03-26T02:23:46.434Z,62.90
2019-03-26T02:26:17.501Z,62.60
2019-03-26T02:28:48.338Z,62.30
2019-03-26T02:31:19.236Z,62.00
2019-03-26T02:33:50.224Z,61.90
2019-03-26T02:36:21.170Z,61.10
2019-03-26T02:38:53.275Z,61.20
2019-03-26T02:41:24.172Z,61.10
2019-03-26T02:43:55.340Z,61.20
2019-03-26T02:46:29.089Z,60.90
2019-03-26T02:49:00.481Z,60.60
2019-03-26T02:51:31.313Z,60.60
2019-03-26T02:54:02.544Z,60.20
2019-03-26T02:56:33.455Z,60.20
2019-03-26T02:59:04.168Z,59.80
2019-03-26T03:01:39.402Z,59.80
2019-03-26T03:04:10.547Z,59.70
2019-03-26T03:06:41.776Z,59.70
2019-03-26T03:09:12.879Z,59.50
2019-03-26T03:11:43.439Z,59.60
2019-03-26T03:14:14.048Z,59.20
2019-03-26T03:16:44.960Z,59.10
2019-03-26T03:19:16.182Z,59.00
2019-03-26T03:22:06.508Z,58.40
2019-03-26T03:24:37.106Z,58.30
2019-03-26T03:27:08.013Z,58.20
2019-03-26T03:29:38.780Z,57.80
2019-03-26T03:32:09.554Z,56.60
2019-03-26T03:34:40.316Z,57.20
2019-03-26T03:37:11.124Z,56.20
2019-03-26T03:39:41.930Z,55.60
2019-03-26T03:42:13.447Z,55.40
2019-03-26T03:44:44.735Z,55.40
2019-03-26T03:47:15.304Z,55.60
2019-03-26T03:49:46.157Z,55.40
2019-03-26T03:52:18.349Z,55.30
2019-03-26T03:54:50.461Z,55.40
2019-03-26T03:57:25.760Z,55.10
2019-03-26T03:59:56.570Z,55.10
2019-03-26T04:02:27.458Z,54.70
2019-03-26T04:04:58.267Z,55.00
2019-03-26T04:07:29.889Z,55.00
2019-03-26T04:10:00.622Z,54.20
2019-03-26T04:12:31.318Z,53.90
2019-03-26T04:15:02.178Z,52.80
2019-03-26T04:17:34.081Z,52.30
2019-03-26T04:20:07.319Z,53.30
2019-03-26T04:22:38.243Z,53.10
2019-03-26T04:25:09.209Z,53.20
2019-03-26T04:27:39.960Z,53.40
2019-03-26T04:30:10.920Z,53.20
2019-03-26T04:32:42.076Z,52.30
2019-03-26T04:35:13.360Z,53.20
2019-03-26T04:37:44.118Z,53.40
2019-03-26T04:40:14.795Z,53.40
2019-03-26T04:42:45.850Z,53.30
2019-03-26T04:45:17.326Z,52.60
2019-03-26T04:47:48.008Z,53.10
2019-03-26T04:50:18.712Z,53.20
2019-03-26T04:52:49.456Z,53.10
2019-03-26T04:55:20.263Z,52.90
2019-03-26T04:57:50.914Z,52.90
2019-03-26T05:00:27.301Z,51.30
2019-03-26T05:02:58.144Z,50.60
2019-03-26T05:05:28.838Z,52.00
2019-03-26T05:08:00.019Z,52.20
2019-03-26T05:10:31.363Z,52.10
2019-03-26T05:13:02.393Z,51.80
2019-03-26T05:15:35.489Z,51.00
2019-03-26T05:18:15.156Z,51.10
2019-03-26T05:20:49.234Z,51.60
2019-03-26T05:23:20.251Z,51.50
2019-03-26T05:25:51.182Z,51.60
2019-03-26T05:28:22.167Z,51.90
2019-03-26T05:30:52.934Z,51.80
2019-03-26T05:33:24.488Z,51.20
2019-03-26T05:35:55.224Z,51.20
2019-03-26T05:38:28.127Z,52.10
2019-03-26T05:40:59.948Z,51.80
2019-03-26T05:43:30.773Z,51.50
2019-03-26T05:46:01.524Z,51.60
2019-03-26T05:48:32.239Z,51.50
2019-03-26T05:51:11.364Z,50.90
2019-03-26T05:53:43.343Z,51.40
2019-03-26T05:56:14.294Z,51.00
2019-03-26T05:58:50.245Z,50.70
2019-03-26T06:01:22.295Z,50.80
2019-03-26T06:03:53.138Z,50.90
2019-03-26T06:06:24.215Z,50.40
2019-03-26T06:08:54.935Z,50.00
2019-03-26T06:11:25.619Z,50.50
2019-03-26T06:13:56.361Z,50.40
2019-03-26T06:16:37.873Z,50.60
2019-03-26T06:18:59.536Z,48.70
2019-03-26T06:21:30.183Z,49.80
2019-03-26T06:24:00.951Z,49.80
2019-03-26T06:26:31.841Z,49.80
2019-03-26T06:29:02.328Z,48.50
2019-03-26T06:31:33.068Z,49.80
2019-03-26T06:34:03.875Z,48.40
2019-03-26T06:36:35.735Z,47.20
2019-03-26T06:39:09.819Z,47.40
2019-03-26T06:41:41.618Z,49.10
2019-03-26T06:44:15.512Z,49.10
2019-03-26T06:46:46.258Z,49.20
2019-03-26T06:49:16.935Z,48.40
2019-03-26T06:51:47.911Z,48.30
2019-03-26T06:54:19.542Z,48.90
2019-03-26T06:56:50.484Z,48.80
2019-03-26T06:59:22.041Z,46.90
2019-03-26T07:01:53.087Z,47.70
2019-03-26T07:04:25.368Z,47.40
2019-03-26T07:06:57.868Z,47.10
2019-03-26T07:09:28.130Z,47.80
2019-03-26T07:11:58.741Z,48.60
2019-03-26T07:14:29.548Z,47.80
2019-03-26T07:17:00.311Z,47.80
2019-03-26T07:19:31.080Z,47.60
2019-03-26T07:22:01.719Z,46.40
2019-03-26T07:24:32.909Z,47.40
2019-03-26T07:27:24.514Z,45.80
2019-03-26T07:29:55.361Z,46.70
2019-03-26T07:32:26.022Z,47.30
2019-03-26T07:34:56.708Z,47.60
2019-03-26T07:37:27.534Z,47.20
2019-03-26T07:39:58.480Z,47.20
2019-03-26T07:42:29.282Z,46.70
2019-03-26T07:44:59.981Z,47.30
2019-03-26T07:47:31.330Z,45.70
2019-03-26T07:50:03.031Z,45.40
2019-03-26T07:52:43.304Z,45.90
2019-03-26T07:55:15.626Z,46.20
2019-03-26T07:57:46.428Z,45.70
2019-03-26T08:00:17.501Z,46.70
2019-03-26T08:02:48.479Z,46.30
2019-03-26T08:05:29.298Z,46.20
2019-03-26T08:07:58.268Z,45.90
2019-03-26T08:10:28.172Z,45.70
2019-03-26T08:13:00.242Z,45.90
2019-03-26T08:15:31.206Z,45.50
2019-03-26T08:18:02.409Z,45.20
2019-03-26T08:20:35.883Z,44.60
2019-03-26T08:23:06.904Z,45.50
2019-03-26T08:25:39.436Z,45.20
2019-03-26T08:28:10.275Z,44.70
2019-03-26T08:30:50.024Z,45.40
2019-03-26T08:33:19.701Z,44.10
2019-03-26T08:35:50.941Z,45.30
2019-03-26T08:38:39.500Z,45.50
2019-03-26T08:41:38.321Z,45.40
2019-03-26T08:44:10.472Z,44.70
2019-03-26T08:46:54.523Z,45.20
2019-03-26T08:49:30.452Z,45.80
2019-03-26T08:51:57.639Z,44.70
2019-03-26T08:54:29.054Z,44.80
2019-03-26T08:57:00.782Z,44.10
2019-03-26T08:59:40.527Z,44.80
2019-03-26T09:02:14.111Z,43.80
2019-03-26T09:04:45.441Z,44.50
2019-03-26T09:07:16.579Z,45.30
2019-03-26T09:09:47.386Z,43.20
2019-03-26T09:12:22.374Z,44.10
2019-03-26T09:14:54.278Z,44.20
2019-03-26T09:17:25.152Z,44.40
2019-03-26T09:19:55.836Z,45.20
2019-03-26T09:22:26.787Z,45.10
2019-03-26T09:24:57.431Z,44.50
2019-03-26T09:27:28.345Z,44.20
2019-03-26T09:29:59.202Z,44.50
2019-03-26T09:32:29.822Z,44.40
2019-03-26T09:35:00.625Z,45.40
2019-03-26T09:37:31.359Z,44.40
2019-03-26T09:40:03.390Z,43.20
2019-03-26T09:42:34.511Z,44.30
2019-03-26T09:45:06.043Z,44.60
2019-03-26T09:47:36.587Z,44.90
2019-03-26T09:50:10.253Z,44.60
2019-03-26T09:52:41.168Z,44.90
2019-03-26T09:55:12.286Z,45.30
2019-03-26T09:57:42.849Z,45.30
2019-03-26T10:00:13.838Z,45.10
2019-03-26T10:02:44.536Z,43.90
2019-03-26T10:05:15.333Z,44.70
2019-03-26T10:07:46.803Z,45.50
2019-03-26T10:10:17.635Z,44.80
2019-03-26T10:12:48.243Z,45.00
2019-03-26T10:15:18.921Z,44.80
2019-03-26T10:17:49.721Z,44.50
2019-03-26T10:20:20.438Z,44.70
2019-03-26T10:22:51.192Z,44.80
2019-03-26T10:25:22.445Z,44.90
2019-03-26T10:27:52.949Z,44.90
2019-03-26T10:30:26.274Z,44.30
2019-03-26T10:32:56.898Z,45.40
2019-03-26T10:35:27.578Z,44.90
2019-03-26T10:37:58.426Z,45.40
2019-03-26T10:40:31.530Z,45.20
2019-03-26T10:43:02.995Z,45.20
2019-03-26T10:45:33.550Z,45.00
2019-03-26T10:48:04.434Z,45.10
2019-03-26T10:50:35.097Z,45.10
2019-03-26T10:53:05.693Z,45.20
2019-03-26T10:55:36.489Z,45.10
2019-03-26T10:58:07.479Z,44.80
2019-03-26T11:00:37.844Z,46.00
2019-03-26T11:03:08.532Z,46.40
2019-03-26T11:05:39.372Z,46.80
2019-03-26T11:08:10.112Z,47.30
2019-03-26T11:10:40.616Z,47.60
2019-03-26T11:13:11.355Z,48.00
2019-03-26T11:15:41.977Z,48.40
2019-03-26T11:18:12.612Z,48.60
2019-03-26T11:20:43.218Z,49.00
2019-03-26T11:23:13.747Z,49.10
2019-03-26T11:25:44.564Z,49.40
2019-03-26T11:28:15.121Z,49.50
2019-03-26T11:30:45.642Z,49.70
2019-03-26T11:33:16.978Z,49.80
2019-03-26T11:35:48.038Z,50.10
2019-03-26T11:38:18.832Z,50.10
2019-03-26T11:40:49.561Z,50.30
2019-03-26T11:43:20.220Z,51.20
2019-03-26T11:45:50.869Z,50.80
2019-03-26T11:48:21.611Z,51.00
2019-03-26T11:50:52.162Z,51.10
2019-03-26T11:53:22.939Z,51.00
2019-03-26T11:55:53.755Z,51.00
2019-03-26T11:58:30.559Z,51.10
2019-03-26T12:00:56.383Z,51.10
2019-03-26T12:03:27.039Z,51.90
2019-03-26T12:05:57.779Z,51.30
2019-03-26T12:08:28.524Z,51.50
2019-03-26T12:10:59.184Z,52.20
2019-03-26T12:13:29.956Z,51.70
2019-03-26T12:16:00.691Z,51.70
2019-03-26T12:18:31.319Z,52.00
2019-03-26T12:21:02.308Z,51.90
2019-03-26T12:23:32.884Z,51.90
2019-03-26T12:26:03.640Z,52.10
2019-03-26T12:28:34.411Z,52.50
2019-03-26T12:31:05.170Z,52.70
2019-03-26T12:33:35.758Z,52.70
2019-03-26T12:36:06.414Z,53.00
2019-03-26T12:38:37.175Z,53.00
2019-03-26T12:41:08.633Z,53.10
2019-03-26T12:43:40.149Z,53.20
2019-03-26T12:46:10.718Z,53.40
2019-03-26T12:48:41.374Z,53.70
2019-03-26T12:51:12.044Z,53.90
2019-03-26T12:53:43.163Z,53.70
2019-03-26T12:56:13.937Z,54.00
2019-03-26T12:58:44.594Z,54.10
2019-03-26T13:01:15.334Z,54.20
2019-03-26T13:03:45.943Z,54.30
2019-03-26T13:06:16.747Z,54.40
2019-03-26T13:08:47.409Z,54.70
2019-03-26T13:11:17.941Z,54.80
2019-03-26T13:13:48.633Z,54.90
2019-03-26T13:16:19.666Z,54.80
2019-03-26T13:18:50.385Z,54.60
2019-03-26T13:21:21.134Z,54.90
2019-03-26T13:23:51.828Z,55.20
2019-03-26T13:26:22.487Z,55.30
2019-03-26T13:28:53.183Z,55.00
2019-03-26T13:31:23.975Z,54.70
2019-03-26T13:33:54.573Z,54.70
2019-03-26T13:36:25.113Z,54.60
2019-03-26T13:38:55.646Z,55.20
2019-03-26T13:41:26.413Z,54.50
2019-03-26T13:43:57.328Z,54.60
2019-03-26T13:46:27.943Z,54.60
2019-03-26T13:48:58.525Z,54.50
2019-03-26T13:51:29.532Z,54.60
2019-03-26T13:54:00.340Z,54.50
2019-03-26T13:56:30.860Z,54.60
2019-03-26T13:59:01.539Z,54.60
2019-03-26T14:01:32.247Z,54.70
2019-03-26T14:04:02.910Z,54.60
2019-03-26T14:06:33.603Z,54.60
2019-03-26T14:09:05.859Z,54.70
2019-03-26T14:11:36.477Z,54.90
2019-03-26T14:14:07.137Z,55.40
2019-03-26T14:16:37.891Z,55.40
2019-03-26T14:19:08.642Z,55.00
2019-03-26T14:21:39.298Z,55.20
2019-03-26T14:24:13.043Z,55.20
2019-03-26T14:26:41.693Z,55.00
2019-03-26T14:29:12.410Z,55.00
2019-03-26T14:31:43.189Z,55.10
2019-03-26T14:34:13.987Z,55.00
2019-03-26T14:36:44.384Z,55.30
2019-03-26T14:39:15.211Z,55.10
2019-03-26T14:41:45.747Z,55.20
2019-03-26T14:44:16.198Z,55.60
2019-03-26T14:46:46.878Z,56.10
2019-03-26T14:49:17.595Z,55.70
2019-03-26T14:51:48.108Z,55.60
2019-03-26T14:54:18.787Z,55.60
2019-03-26T14:56:49.310Z,55.50
2019-03-26T14:59:20.074Z,55.90
2019-03-26T15:01:50.587Z,56.00
2019-03-26T15:04:21.369Z,56.00
2019-03-26T15:06:52.119Z,56.00
2019-03-26T15:09:22.729Z,56.20
2019-03-26T15:11:53.495Z,56.30
2019-03-26T15:14:24.255Z,56.30
2019-03-26T15:16:54.812Z,56.50
2019-03-26T15:19:25.459Z,56.60
2019-03-26T15:21:55.969Z,57.00
2019-03-26T15:24:26.564Z,57.10
2019-03-26T15:26:57.175Z,57.00
2019-03-26T15:29:27.970Z,56.90
2019-03-26T15:31:58.636Z,57.40
2019-03-26T15:34:36.037Z,57.50
2019-03-26T15:37:01.102Z,57.60
2019-03-26T15:39:31.782Z,57.70
2019-03-26T15:42:02.455Z,58.00
2019-03-26T15:44:33.101Z,57.90
2019-03-26T15:47:03.891Z,58.30
2019-03-26T15:49:34.570Z,58.30
2019-03-26T15:52:05.260Z,58.40
2019-03-26T15:54:35.968Z,59.10
2019-03-26T15:57:06.797Z,58.70
2019-03-26T15:59:37.534Z,59.00
2019-03-26T16:02:08.308Z,58.70
2019-03-26T16:04:38.962Z,58.70
2019-03-26T16:07:09.651Z,58.80
2019-03-26T16:09:40.483Z,58.60
2019-03-26T16:12:11.251Z,58.70
2019-03-26T16:14:41.953Z,58.70
2019-03-26T16:17:12.647Z,58.90
2019-03-26T16:19:43.253Z,59.00
2019-03-26T16:22:13.833Z,58.70
2019-03-26T16:24:44.434Z,59.00
2019-03-26T16:27:15.017Z,58.80
2019-03-26T16:29:45.753Z,59.10
2019-03-26T16:32:16.159Z,59.50
2019-03-26T16:34:46.931Z,59.60
2019-03-26T16:37:17.550Z,59.80
2019-03-26T16:39:48.225Z,59.60
2019-03-26T16:42:19.361Z,60.40
2019-03-26T16:44:50.171Z,59.80
2019-03-26T16:47:20.837Z,60.10
2019-03-26T16:49:51.664Z,59.80
2019-03-26T16:52:22.478Z,59.80
2019-03-26T16:54:53.421Z,60.60
2019-03-26T16:57:23.936Z,59.70
2019-03-26T16:59:54.634Z,59.90
2019-03-26T17:02:25.423Z,60.80
2019-03-26T17:04:55.905Z,61.90
2019-03-26T17:07:26.684Z,61.70
2019-03-26T17:09:57.517Z,61.50
2019-03-26T17:12:28.321Z,62.10
2019-03-26T17:14:58.890Z,62.00
2019-03-26T17:17:29.389Z,63.70
2019-03-26T17:20:00.558Z,64.10
2019-03-26T17:22:31.299Z,64.40
2019-03-26T17:25:02.059Z,64.00
2019-03-26T17:27:32.791Z,64.60
2019-03-26T17:30:03.350Z,64.00
2019-03-26T17:32:34.012Z,64.70
2019-03-26T17:35:07.144Z,64.80
2019-03-26T17:37:37.775Z,64.60
2019-03-26T17:40:08.672Z,63.90
2019-03-26T17:42:39.271Z,63.80
2019-03-26T17:45:09.958Z,64.30
2019-03-26T17:47:40.732Z,64.10
2019-03-26T17:50:11.335Z,64.60
2019-03-26T17:52:42.035Z,64.70
2019-03-26T17:55:12.899Z,64.60
2019-03-26T17:57:43.573Z,64.10
2019-03-26T18:00:16.739Z,66.10
2019-03-26T18:02:47.500Z,65.70
2019-03-26T18:05:20.540Z,65.40
2019-03-26T18:07:51.313Z,65.50
2019-03-26T18:10:21.924Z,65.50
2019-03-26T18:12:52.761Z,66.30
2019-03-26T18:15:23.466Z,66.50
2019-03-26T18:17:54.028Z,66.70
2019-03-26T18:20:32.333Z,66.80
2019-03-26T18:22:56.619Z,66.80
2019-03-26T18:25:27.171Z,66.40
2019-03-26T18:27:57.702Z,66.70
2019-03-26T18:30:28.358Z,66.60
2019-03-26T18:32:58.989Z,66.20
2019-03-26T18:35:29.764Z,65.70
2019-03-26T18:38:00.413Z,66.40
2019-03-26T18:40:31.074Z,67.20
2019-03-26T18:43:01.812Z,66.40
2019-03-26T18:45:32.620Z,66.10
2019-03-26T18:48:03.179Z,65.70
2019-03-26T18:50:33.875Z,66.40
2019-03-26T18:53:04.677Z,66.00
2019-03-26T18:55:35.271Z,65.70
2019-03-26T18:58:06.043Z,65.30
2019-03-26T19:00:38.303Z,65.40
2019-03-26T19:03:09.112Z,65.40
2019-03-26T19:05:39.899Z,65.80
2019-03-26T19:08:10.704Z,67.00
2019-03-26T19:10:41.703Z,67.20
2019-03-26T19:13:19.311Z,67.60
2019-03-26T19:15:44.557Z,67.30
2019-03-26T19:18:15.167Z,68.40
2019-03-26T19:20:45.753Z,68.30
2019-03-26T19:23:16.522Z,67.90
2019-03-26T19:25:47.152Z,67.60
2019-03-26T19:28:17.881Z,67.30
2019-03-26T19:30:48.570Z,67.00
2019-03-26T19:33:19.182Z,67.90
2019-03-26T19:35:49.894Z,67.40
2019-03-26T19:38:20.694Z,67.30
2019-03-26T19:40:52.221Z,67.10
2019-03-26T19:43:22.851Z,66.70
2019-03-26T19:45:53.403Z,67.20
2019-03-26T19:48:24.054Z,67.30
2019-03-26T19:50:54.721Z,67.00
2019-03-26T19:53:25.647Z,67.40
2019-03-26T19:55:56.365Z,67.30
2019-03-26T19:58:26.969Z,67.20
2019-03-26T20:00:57.762Z,68.10
2019-03-26T20:03:28.160Z,68.70
2019-03-26T20:05:58.892Z,69.70
2019-03-26T20:08:29.510Z,69.00
2019-03-26T20:11:00.333Z,69.10
2019-03-26T20:13:30.932Z,68.50
2019-03-26T20:16:01.425Z,68.10
2019-03-26T20:18:32.126Z,68.00
2019-03-26T20:21:02.811Z,67.50
2019-03-26T20:23:33.517Z,69.40
2019-03-26T20:26:04.537Z,69.80
2019-03-26T20:28:35.185Z,69.50
2019-03-26T20:31:05.852Z,69.90
2019-03-26T20:33:36.386Z,69.20
2019-03-26T20:36:07.181Z,69.60
2019-03-26T20:38:37.819Z,70.90
2019-03-26T20:41:08.301Z,70.90
2019-03-26T20:43:38.967Z,71.30
2019-03-26T20:46:09.473Z,71.20
2019-03-26T20:48:40.146Z,70.90
2019-03-26T20:51:10.921Z,70.20
2019-03-26T20:53:41.551Z,69.80
2019-03-26T20:56:11.984Z,70.50
2019-03-26T20:58:42.756Z,69.70
2019-03-26T21:01:13.538Z,69.10
2019-03-26T21:03:44.341Z,69.20
2019-03-26T21:06:15.084Z,70.00
2019-03-26T21:08:45.564Z,71.70
2019-03-26T21:11:16.611Z,71.80
2019-03-26T21:13:51.053Z,71.10
2019-03-26T21:16:19.411Z,70.30
2019-03-26T21:18:50.329Z,69.80
2019-03-26T21:21:21.038Z,69.80
2019-03-26T21:23:51.807Z,71.10
2019-03-26T21:26:22.464Z,72.30
2019-03-26T21:28:53.270Z,72.30
2019-03-26T21:31:23.894Z,72.40
2019-03-26T21:33:54.572Z,72.50
2019-03-26T21:36:24.915Z,71.10
2019-03-26T21:38:55.869Z,70.20
2019-03-26T21:41:26.599Z,70.00
2019-03-26T21:44:04.259Z,69.90
2019-03-26T21:46:29.096Z,70.00
2019-03-26T21:48:59.934Z,70.00
2019-03-26T21:51:30.519Z,69.50
2019-03-26T21:54:01.165Z,69.70
2019-03-26T21:56:31.942Z,69.80
2019-03-26T21:59:02.702Z,69.50
2019-03-26T22:01:33.224Z,69.90
2019-03-26T22:04:03.769Z,70.80
2019-03-26T22:06:34.974Z,71.70
2019-03-26T23:41:50.236Z,73.20
2019-03-26T23:44:25.993Z,72.90
2019-03-26T23:46:53.044Z,72.70
2019-03-26T23:49:23.587Z,73.00
2019-03-26T23:51:54.265Z,73.10
2019-03-26T23:54:24.902Z,74.10
2019-03-26T23:56:55.378Z,73.90
2019-03-26T23:59:25.923Z,73.30
